Time;durP1;ratioP1;P1;durP2;ratioP2;P2;SDS_P1;SDS_P2;PMS_P1;PMS_P2;Temp;Humidity;BMP_temperature;BMP_pressure;BME280_temperature;BME280_humidity;BME280_pressure;Samples;Min_cycle;Max_cycle;Signal;HPM_P1;HPM_P2
2021/12/09 00:00:19;;;;;;;;;;;;;;;3.00;52.07;94103.78;5018021;28;20351;-75
2021/12/09 00:02:45;;;;;;;;;;;;;;;2.86;50.67;94094.75;5020578;28;19928;-75
2021/12/09 00:05:11;;;;;;;;;;;;;;;2.59;48.37;94102.03;4993748;28;20541;-75
2021/12/09 00:07:36;;;;;;;;;;;;;;;2.42;48.36;94096.78;5015689;28;20373;-75
2021/12/09 00:10:05;;;;;;;;;;;;;;;2.44;47.73;94093.97;5026689;28;19988;-75
2021/12/09 00:12:31;;;;;;;;;;;;;;;2.10;47.95;94108.88;5005851;28;19926;-75
2021/12/09 00:14:56;;;;;;;;;;;;;;;1.92;52.84;94109.00;5009968;28;19993;-75
2021/12/09 00:17:21;;;;;;;;;;;;;;;1.99;49.20;94105.59;5026577;28;19956;-75
2021/12/09 00:19:46;;;;;;;;;;;;;;;1.69;51.05;94107.00;5013636;28;19972;-75
2021/12/09 00:22:12;;;;;;;;;;;;;;;1.86;53.42;94111.31;5003326;28;20383;-75
2021/12/09 00:24:37;;;;;;;;;;;;;;;2.01;53.16;94111.50;5025004;28;20008;-75
2021/12/09 00:27:03;;;;;;;;;;;;;;;2.12;53.61;94112.19;5024549;28;19933;-75
2021/12/09 00:29:28;;;;;;;;;;;;;;;2.17;55.32;94109.88;5024518;28;20007;-75
2021/12/09 00:31:53;;;;;;;;;;;;;;;2.27;54.71;94120.22;5001935;28;20145;-75
2021/12/09 00:34:20;;;;;;;;;;;;;;;2.38;55.15;94124.31;4997026;28;19921;-75
2021/12/09 00:36:57;;;;;;;;;;;;;;;2.50;54.13;94128.28;5023686;28;19925;-75
2021/12/09 00:39:23;;;;;;;;;;;;;;;2.58;54.09;94131.91;5023815;28;19929;-75
2021/12/09 00:41:48;;;;;;;;;;;;;;;2.49;53.17;94133.72;5024836;28;20013;-75
2021/12/09 00:44:13;;;;;;;;;;;;;;;2.63;53.40;94134.84;5008052;28;19956;-75
2021/12/09 00:46:38;;;;;;;;;;;;;;;2.72;53.30;94139.13;5007488;28;20386;-75
2021/12/09 00:49:04;;;;;;;;;;;;;;;2.78;52.65;94142.88;5024532;28;20176;-75
2021/12/09 00:51:29;;;;;;;;;;;;;;;2.81;52.75;94137.31;5024682;28;20165;-75
2021/12/09 00:53:54;;;;;;;;;;;;;;;2.82;52.64;94141.56;5020881;28;20010;-75
2021/12/09 00:56:20;;;;;;;;;;;;;;;2.86;52.65;94142.88;5022003;28;20471;-75
2021/12/09 00:58:45;;;;;;;;;;;;;;;2.90;52.33;94141.56;5020527;28;19917;-75
2021/12/09 01:01:10;;;;;;;;;;;;;;;3.00;52.65;94137.94;5000936;28;19926;-75
2021/12/09 01:03:36;;;;;;;;;;;;;;;3.06;52.46;94134.63;5013983;28;19925;-75
2021/12/09 01:06:01;;;;;;;;;;;;;;;3.04;52.26;94140.06;5025412;28;19984;-75
2021/12/09 01:08:26;;;;;;;;;;;;;;;3.11;52.09;94142.03;5008640;28;19993;-75
2021/12/09 01:10:52;;;;;;;;;;;;;;;3.08;51.27;94137.94;5009064;28;20029;-75
2021/12/09 01:13:17;;;;;;;;;;;;;;;3.06;51.57;94141.72;5022727;28;20064;-75
2021/12/09 01:15:42;;;;;;;;;;;;;;;3.04;51.48;94141.88;5010577;28;20020;-75
2021/12/09 01:18:07;;;;;;;;;;;;;;;3.04;52.35;94139.25;5025250;28;19977;-75
2021/12/09 01:20:33;;;;;;;;;;;;;;;3.08;51.75;94148.44;4995539;28;19986;-75
2021/12/09 01:22:58;;;;;;;;;;;;;;;3.09;52.27;94150.09;5015391;28;20017;-75
2021/12/09 01:25:24;;;;;;;;;;;;;;;3.12;52.43;94148.91;4991914;28;20056;-75
2021/12/09 01:27:51;;;;;;;;;;;;;;;3.16;52.19;94148.44;5016222;28;19997;-75
2021/12/09 01:30:17;;;;;;;;;;;;;;;3.20;51.75;94151.53;5023522;28;20046;-75
2021/12/09 01:32:48;;;;;;;;;;;;;;;3.09;47.64;94155.34;5023692;28;20025;-75
2021/12/09 01:35:14;;;;;;;;;;;;;;;2.91;52.11;94153.75;5022249;28;20377;-75
2021/12/09 01:37:40;;;;;;;;;;;;;;;2.96;52.24;94152.41;5016912;28;19977;-75
2021/12/09 01:40:07;;;;;;;;;;;;;;;3.03;51.57;94156.81;5008570;28;20699;-75
2021/12/09 01:42:32;;;;;;;;;;;;;;;3.12;52.49;94155.00;5002753;28;20063;-75
2021/12/09 01:44:57;;;;;;;;;;;;;;;3.06;47.18;94147.78;5005388;28;19994;-75
2021/12/09 01:47:22;;;;;;;;;;;;;;;2.98;50.29;94153.88;5001769;28;19998;-76
2021/12/09 01:49:48;;;;;;;;;;;;;;;2.55;49.82;94154.06;5023017;28;19981;-75
2021/12/09 01:52:13;;;;;;;;;;;;;;;2.71;49.63;94162.94;5005962;28;19998;-75
2021/12/09 01:54:38;;;;;;;;;;;;;;;2.39;46.55;94166.19;4991790;28;20020;-75
2021/12/09 01:57:05;;;;;;;;;;;;;;;2.09;47.71;94167.63;5003326;28;20068;-75
2021/12/09 01:59:30;;;;;;;;;;;;;;;1.90;49.30;94168.75;5012611;28;20373;-75
2021/12/09 02:01:55;;;;;;;;;;;;;;;1.79;52.42;94167.22;5018850;28;19970;-75
2021/12/09 02:04:21;;;;;;;;;;;;;;;2.09;50.58;94165.84;5015367;28;19921;-75
2021/12/09 02:06:46;;;;;;;;;;;;;;;2.11;51.85;94161.22;5018968;28;19984;-75
2021/12/09 02:09:12;;;;;;;;;;;;;;;1.95;51.83;94161.19;5013941;28;20011;-75
2021/12/09 02:11:38;;;;;;;;;;;;;;;1.92;53.51;94164.97;5009953;28;20012;-75
2021/12/09 02:14:03;;;;;;;;;;;;;;;1.93;54.06;94165.78;5005019;28;20008;-75
2021/12/09 02:16:29;;;;;;;;;;;;;;;1.98;54.11;94166.13;5009992;28;20349;-75
2021/12/09 02:18:54;;;;;;;;;;;;;;;2.02;54.46;94159.59;5018024;28;20028;-75
2021/12/09 02:21:23;;;;;;;;;;;;;;;2.08;52.68;94156.28;4995353;28;19917;-75
2021/12/09 02:23:55;;;;;;;;;;;;;;;2.27;54.85;94155.19;5015290;28;19928;-76
2021/12/09 02:26:21;;;;;;;;;;;;;;;2.12;54.15;94164.69;5022607;28;20555;-75
2021/12/09 02:28:47;;;;;;;;;;;;;;;2.44;54.30;94149.97;5024389;28;20334;-75
2021/12/09 02:31:12;;;;;;;;;;;;;;;2.56;54.25;94152.25;5017464;28;19940;-75
2021/12/09 02:33:37;;;;;;;;;;;;;;;2.60;52.59;94150.94;5021998;28;19927;-75
2021/12/09 02:36:03;;;;;;;;;;;;;;;2.67;53.22;94145.84;5007313;28;20461;-75
2021/12/09 02:38:28;;;;;;;;;;;;;;;2.62;50.21;94144.53;5003545;28;19924;-75
2021/12/09 02:40:55;;;;;;;;;;;;;;;2.36;51.62;94135.03;5018899;28;20509;-75
2021/12/09 02:43:25;;;;;;;;;;;;;;;2.39;52.05;94145.19;5019378;28;19926;-75
2021/12/09 02:45:52;;;;;;;;;;;;;;;2.56;53.71;94144.38;5007357;28;20197;-75
2021/12/09 02:48:18;;;;;;;;;;;;;;;2.56;52.18;94145.22;5022499;28;20337;-75
2021/12/09 02:50:43;;;;;;;;;;;;;;;2.45;52.10;94138.47;5006326;28;19926;-75
2021/12/09 02:53:08;;;;;;;;;;;;;;;2.55;52.87;94142.75;5020025;28;19964;-75
2021/12/09 02:55:33;;;;;;;;;;;;;;;2.60;52.62;94143.06;5022090;28;20007;-75
2021/12/09 02:58:02;;;;;;;;;;;;;;;2.73;53.26;94142.56;5028009;28;19921;-75
2021/12/09 03:00:28;;;;;;;;;;;;;;;2.73;50.23;94147.84;5000872;28;20346;-75
2021/12/09 03:02:55;;;;;;;;;;;;;;;2.77;52.72;94147.34;5003524;28;19928;-75
2021/12/09 03:05:20;;;;;;;;;;;;;;;2.83;48.73;94153.75;5026088;28;19929;-75
2021/12/09 03:07:46;;;;;;;;;;;;;;;2.66;51.65;94160.81;5015558;28;19918;-75
2021/12/09 03:10:20;;;;;;;;;;;;;;;2.83;52.56;94160.81;5004868;28;19921;-75
2021/12/09 03:12:46;;;;;;;;;;;;;;;2.76;50.33;94160.66;5017647;28;19917;-75
2021/12/09 03:15:12;;;;;;;;;;;;;;;2.70;52.58;94154.25;5013847;28;19933;-75
2021/12/09 03:17:38;;;;;;;;;;;;;;;2.69;53.63;94160.47;4998444;28;19914;-75
2021/12/09 03:20:04;;;;;;;;;;;;;;;2.72;52.44;94154.88;5018028;28;19979;-75
2021/12/09 03:22:29;;;;;;;;;;;;;;;2.65;49.30;94153.91;5026010;28;20374;-75
2021/12/09 03:24:54;;;;;;;;;;;;;;;2.43;51.94;94152.75;5023936;28;19925;-75
2021/12/09 03:27:20;;;;;;;;;;;;;;;2.50;52.92;94151.94;5014093;28;20461;-75
2021/12/09 03:29:45;;;;;;;;;;;;;;;2.45;52.06;94150.78;5024638;28;19917;-75
2021/12/09 03:32:12;;;;;;;;;;;;;;;2.41;50.27;94158.16;5012822;28;19936;-77
2021/12/09 03:34:37;;;;;;;;;;;;;;;2.33;53.48;94155.53;5022963;28;20579;-75
2021/12/09 03:37:04;;;;;;;;;;;;;;;2.40;54.22;94167.03;5012307;28;19905;-75
2021/12/09 03:39:30;;;;;;;;;;;;;;;2.53;53.72;94161.31;5014884;28;19968;-75
2021/12/09 03:41:55;;;;;;;;;;;;;;;2.59;53.79;94157.19;5007672;28;19917;-75
2021/12/09 03:44:20;;;;;;;;;;;;;;;2.65;53.72;94169.66;4995895;28;20322;-75
2021/12/09 03:46:46;;;;;;;;;;;;;;;2.72;53.05;94181.16;5007072;28;19928;-75
2021/12/09 03:49:11;;;;;;;;;;;;;;;2.77;53.15;94170.16;5024462;28;19960;-75
2021/12/09 03:51:36;;;;;;;;;;;;;;;2.83;52.96;94176.56;5010669;28;19925;-75
2021/12/09 03:54:05;;;;;;;;;;;;;;;2.83;50.41;94179.22;5014811;28;19947;-75
2021/12/09 03:56:31;;;;;;;;;;;;;;;2.70;52.92;94172.63;5020744;28;19964;-75
2021/12/09 03:58:56;;;;;;;;;;;;;;;2.71;53.40;94158.50;5021020;28;19953;-75
2021/12/09 04:01:21;;;;;;;;;;;;;;;2.69;53.19;94165.72;4993411;28;20111;-75
2021/12/09 04:03:46;;;;;;;;;;;;;;;2.70;53.41;94163.94;5016458;28;20000;-75
2021/12/09 04:06:11;;;;;;;;;;;;;;;2.62;52.23;94164.75;5013653;28;20016;-75
2021/12/09 04:08:38;;;;;;;;;;;;;;;2.58;52.68;94169.50;5023362;28;19924;-75
2021/12/09 04:11:03;;;;;;;;;;;;;;;2.06;49.18;94179.28;5014568;28;19921;-75
2021/12/09 04:13:28;;;;;;;;;;;;;;;2.04;50.74;94181.22;5023506;28;20286;-75
2021/12/09 04:15:53;;;;;;;;;;;;;;;2.14;50.71;94191.59;5010217;28;19952;-75
2021/12/09 04:18:20;;;;;;;;;;;;;;;1.97;48.47;94186.31;5005282;28;20685;-75
2021/12/09 04:20:45;;;;;;;;;;;;;;;1.91;54.60;94188.75;5020071;28;20371;-75
2021/12/09 04:23:11;;;;;;;;;;;;;;;1.93;55.53;94194.66;5012029;28;19926;-75
2021/12/09 04:25:36;;;;;;;;;;;;;;;1.95;55.18;94193.53;4938160;28;1849106;-75
2021/12/09 04:28:01;;;;;;;;;;;;;;;1.98;54.59;94200.25;5009041;28;19921;-75
2021/12/09 04:30:27;;;;;;;;;;;;;;;1.96;54.69;94203.03;5022812;28;20382;-75
2021/12/09 04:32:52;;;;;;;;;;;;;;;1.90;55.75;94193.16;5013261;28;19967;-75
2021/12/09 04:35:18;;;;;;;;;;;;;;;1.92;54.58;94206.13;5015897;28;19993;-75
2021/12/09 04:37:43;;;;;;;;;;;;;;;1.99;55.29;94213.25;4995129;28;19989;-76
2021/12/09 04:40:09;;;;;;;;;;;;;;;2.06;55.60;94212.59;5020241;28;20023;-75
2021/12/09 04:42:34;;;;;;;;;;;;;;;2.11;54.92;94205.88;5011107;28;20390;-75
2021/12/09 04:44:59;;;;;;;;;;;;;;;2.14;55.09;94199.47;5006897;28;19990;-75
2021/12/09 04:47:24;;;;;;;;;;;;;;;2.09;50.06;94196.50;5000021;28;20084;-76
2021/12/09 04:49:50;;;;;;;;;;;;;;;2.09;54.39;94201.75;5010718;28;20428;-75
2021/12/09 04:52:15;;;;;;;;;;;;;;;2.11;54.40;94205.06;5013723;28;19993;-75
2021/12/09 04:54:43;;;;;;;;;;;;;;;2.17;55.42;94214.13;5024543;28;20048;-75
2021/12/09 04:57:09;;;;;;;;;;;;;;;2.22;54.60;94206.56;5009466;28;20016;-75
2021/12/09 04:59:34;;;;;;;;;;;;;;;2.24;54.59;94207.22;5014904;28;19986;-75
2021/12/09 05:01:59;;;;;;;;;;;;;;;2.18;53.88;94194.75;4993318;28;19981;-75
2021/12/09 05:04:25;;;;;;;;;;;;;;;2.12;55.10;94194.38;5018054;28;20041;-75
2021/12/09 05:06:50;;;;;;;;;;;;;;;2.09;54.83;94193.88;5016856;28;19990;-75
2021/12/09 05:09:18;;;;;;;;;;;;;;;2.07;54.11;94193.22;5019273;28;20031;-75
2021/12/09 05:14:12;;;;;;;;;;;;;;;1.87;55.18;94207.44;5007163;28;20105;-75
2021/12/09 05:16:37;;;;;;;;;;;;;;;1.74;55.89;94217.56;5014261;28;19948;-75
2021/12/09 05:19:02;;;;;;;;;;;;;;;1.67;55.85;94216.53;5019381;28;19997;-75
2021/12/09 05:21:29;;;;;;;;;;;;;;;1.58;56.06;94224.38;5000902;28;19966;-75
2021/12/09 05:23:54;;;;;;;;;;;;;;;1.50;56.18;94216.44;5003721;28;20567;-75
2021/12/09 05:26:22;;;;;;;;;;;;;;;1.44;56.54;94214.44;5002146;28;19978;-75
2021/12/09 05:28:54;;;;;;;;;;;;;;;1.37;56.50;94216.84;5024133;28;20089;-75
2021/12/09 05:34:03;;;;;;;;;;;;;;;1.22;57.23;94217.41;4995218;28;20242;-75
2021/12/09 05:36:28;;;;;;;;;;;;;;;1.15;57.39;94215.53;4990543;28;20437;-75
2021/12/09 05:38:54;;;;;;;;;;;;;;;1.10;57.49;94224.69;4993167;28;20080;-74
2021/12/09 05:41:19;;;;;;;;;;;;;;;0.87;54.47;94228.78;4991292;28;20016;-75
2021/12/09 05:43:44;;;;;;;;;;;;;;;0.34;53.38;94238.16;5016184;28;19994;-74
2021/12/09 05:46:09;;;;;;;;;;;;;;;0.39;51.59;94236.88;5012088;28;19988;-75
2021/12/09 05:48:35;;;;;;;;;;;;;;;0.12;52.71;94242.00;5020938;28;19993;-74
2021/12/09 05:51:00;;;;;;;;;;;;;;;0.19;57.97;94237.84;5011963;28;19990;-74
2021/12/09 05:53:25;;;;;;;;;;;;;;;-0.09;59.44;94245.72;5016791;28;20454;-75
2021/12/09 05:55:51;;;;;;;;;;;;;;;0.10;58.18;94243.94;5015575;28;20343;-75
2021/12/09 05:58:17;;;;;;;;;;;;;;;0.15;53.96;94253.97;5023472;28;19977;-75
2021/12/09 06:00:42;;;;;;;;;;;;;;;0.37;58.06;94249.31;4995417;28;19990;-75
2021/12/09 06:03:07;;;;;;;;;;;;;;;0.28;52.60;94241.34;5014181;28;20008;-75
2021/12/09 06:05:33;;;;;;;;;;;;;;;0.48;59.23;94243.84;4986508;28;20021;-75
2021/12/09 06:07:58;;;;;;;;;;;;;;;0.58;55.55;94251.66;4986745;28;19994;-75
2021/12/09 06:10:23;;;;;;;;;;;;;;;0.69;53.89;94255.84;4982269;28;20403;-75
2021/12/09 06:12:49;;;;;;;;;;;;;;;0.66;50.88;94251.72;4995407;28;19978;-73
2021/12/09 06:15:14;;;;;;;;;;;;;;;0.72;57.81;94258.16;4985190;28;20455;-73
2021/12/09 06:17:39;;;;;;;;;;;;;;;0.83;55.90;94254.47;4997103;28;19977;-74
2021/12/09 06:20:05;;;;;;;;;;;;;;;0.98;56.18;94258.22;5013897;28;20354;-75
2021/12/09 06:22:30;;;;;;;;;;;;;;;1.07;53.28;94255.66;5006489;28;19969;-74
2021/12/09 06:24:55;;;;;;;;;;;;;;;1.14;55.11;94253.22;5019013;28;20086;-75
2021/12/09 06:27:20;;;;;;;;;;;;;;;1.19;58.13;94243.13;5001160;28;20002;-74
2021/12/09 06:29:46;;;;;;;;;;;;;;;1.26;57.55;94248.56;4994390;28;19997;-75
2021/12/09 06:32:11;;;;;;;;;;;;;;;1.28;56.43;94244.81;4986414;28;20000;-75
2021/12/09 06:34:36;;;;;;;;;;;;;;;1.26;57.22;94249.38;4991692;28;20467;-73
2021/12/09 06:37:02;;;;;;;;;;;;;;;1.23;57.30;94254.97;5019779;28;19962;-75
2021/12/09 06:39:27;;;;;;;;;;;;;;;1.13;56.73;94260.28;5015085;28;19994;-73
2021/12/09 06:41:52;;;;;;;;;;;;;;;1.09;56.36;94265.00;5004122;28;19973;-74
2021/12/09 06:44:17;;;;;;;;;;;;;;;1.06;57.23;94257.44;5009161;28;20051;-73
2021/12/09 06:46:43;;;;;;;;;;;;;;;1.01;57.50;94251.84;5018639;28;20415;-73
2021/12/09 06:49:08;;;;;;;;;;;;;;;0.98;57.74;94246.88;4993832;28;19970;-74
2021/12/09 06:51:33;;;;;;;;;;;;;;;0.92;57.64;94258.81;4997143;28;19994;-74
2021/12/09 06:53:58;;;;;;;;;;;;;;;0.83;57.85;94257.94;4991052;28;20117;-74
2021/12/09 06:56:24;;;;;;;;;;;;;;;0.76;57.64;94263.91;5019847;28;19989;-74
2021/12/09 06:58:49;;;;;;;;;;;;;;;0.73;58.10;94270.28;5020506;28;20433;-74
2021/12/09 07:01:15;;;;;;;;;;;;;;;0.65;57.66;94268.38;5013458;28;20477;-74
2021/12/09 07:03:40;;;;;;;;;;;;;;;0.56;54.96;94267.50;5013294;28;20052;-74
2021/12/09 07:06:08;;;;;;;;;;;;;;;0.55;57.89;94263.22;5013617;28;20051;-74
2021/12/09 07:08:35;;;;;;;;;;;;;;;0.59;58.68;94275.03;5022531;28;19994;-74
2021/12/09 07:11:01;;;;;;;;;;;;;;;0.65;59.06;94272.81;5018038;28;20028;-75
2021/12/09 07:13:26;;;;;;;;;;;;;;;0.73;59.02;94275.50;4996738;28;20017;-74
2021/12/09 07:15:52;;;;;;;;;;;;;;;0.79;59.15;94284.56;5000546;28;19990;-74
2021/12/09 07:18:20;;;;;;;;;;;;;;;0.87;58.64;94281.19;5016377;28;19984;-74
2021/12/09 07:20:46;;;;;;;;;;;;;;;0.98;57.81;94291.44;5009164;28;20209;-74
2021/12/09 07:23:11;;;;;;;;;;;;;;;1.00;57.85;94284.28;5015832;28;20020;-74
2021/12/09 07:25:38;;;;;;;;;;;;;;;1.05;57.84;94289.03;5020630;28;20095;-75
2021/12/09 07:28:03;;;;;;;;;;;;;;;1.11;51.88;94301.56;5020946;28;20461;-74
2021/12/09 07:30:28;;;;;;;;;;;;;;;1.00;56.78;94299.16;5022982;28;19973;-74
2021/12/09 07:32:54;;;;;;;;;;;;;;;1.02;52.08;94302.47;5010415;28;19970;-75
2021/12/09 07:35:19;;;;;;;;;;;;;;;0.63;50.16;94301.78;5010108;28;20083;-73
2021/12/09 07:37:44;;;;;;;;;;;;;;;0.33;49.74;94301.97;5011599;28;20069;-74
2021/12/09 07:40:13;;;;;;;;;;;;;;;0.43;50.36;94308.94;5020143;28;20493;-75
2021/12/09 07:42:39;;;;;;;;;;;;;;;0.12;51.54;94304.84;5012939;28;20008;-74
2021/12/09 07:45:04;;;;;;;;;;;;;;;0.13;53.91;94313.50;5019823;28;20522;-74
2021/12/09 07:47:29;;;;;;;;;;;;;;;0.10;52.30;94309.38;5013124;28;19993;-74
2021/12/09 07:49:55;;;;;;;;;;;;;;;-0.03;54.96;94320.16;5023066;28;19974;-74
2021/12/09 07:52:20;;;;;;;;;;;;;;;-1.60;56.69;94332.38;5019879;28;19993;-74
2021/12/09 07:54:45;;;;;;;;;;;;;;;-1.47;58.08;94334.72;5022721;28;20415;-74
2021/12/09 07:57:10;;;;;;;;;;;;;;;-1.97;57.90;94338.97;5011509;28;19984;-74
2021/12/09 07:59:36;;;;;;;;;;;;;;;-0.80;59.29;94331.50;5005329;28;19989;-74
2021/12/09 08:02:01;;;;;;;;;;;;;;;-0.93;54.92;94334.41;4991618;28;20263;-74
2021/12/09 08:04:26;;;;;;;;;;;;;;;-0.77;55.98;94331.25;5017482;28;20587;-74
2021/12/09 08:06:51;;;;;;;;;;;;;;;-0.92;56.56;94328.19;5017356;28;19997;-74
2021/12/09 08:09:17;;;;;;;;;;;;;;;-1.32;56.45;94343.03;5003977;28;19977;-74
2021/12/09 08:11:43;;;;;;;;;;;;;;;-0.63;60.44;94339.59;5021297;28;20461;-74
2021/12/09 08:14:11;;;;;;;;;;;;;;;-0.56;55.38;94338.09;5022226;28;20080;-74
2021/12/09 08:16:37;;;;;;;;;;;;;;;-0.37;56.00;94341.63;5012258;28;19993;-74
2021/12/09 08:19:06;;;;;;;;;;;;;;;-0.05;53.77;94348.28;5007876;28;20047;-74
2021/12/09 08:21:35;;;;;;;;;;;;;;;-1.48;58.16;94361.81;5020567;28;20256;-74
2021/12/09 08:24:00;;;;;;;;;;;;;;;-0.70;62.84;94352.41;5011263;28;20368;-75
2021/12/09 08:26:26;;;;;;;;;;;;;;;-0.54;54.81;94361.47;5006848;28;19997;-74
2021/12/09 08:28:51;;;;;;;;;;;;;;;-0.23;56.69;94351.63;5006956;28;20001;-74
2021/12/09 08:31:16;;;;;;;;;;;;;;;-0.31;54.93;94368.03;5010348;28;20084;-74
2021/12/09 08:33:41;;;;;;;;;;;;;;;-0.02;52.55;94366.31;5012339;28;20389;-73
2021/12/09 08:36:07;;;;;;;;;;;;;;;-0.36;52.79;94375.50;5019516;28;19998;-74
2021/12/09 08:38:33;;;;;;;;;;;;;;;-0.21;52.38;94372.41;5015358;28;19973;-74
2021/12/09 08:41:00;;;;;;;;;;;;;;;-0.43;55.55;94375.22;4998117;28;20031;-74
2021/12/09 08:43:25;;;;;;;;;;;;;;;-0.06;59.59;94371.00;5020235;28;20400;-74
2021/12/09 08:45:51;;;;;;;;;;;;;;;0.31;60.90;94368.53;5013601;28;20435;-74
2021/12/09 08:48:16;;;;;;;;;;;;;;;0.47;52.58;94367.91;5015113;28;19994;-74
2021/12/09 08:50:43;;;;;;;;;;;;;;;0.40;54.71;94365.03;5019876;28;20343;-74
2021/12/09 08:53:10;;;;;;;;;;;;;;;0.76;51.91;94363.47;5017957;28;19972;-73
2021/12/09 08:55:35;;;;;;;;;;;;;;;0.70;55.14;94367.50;4998067;28;20053;-75
2021/12/09 08:58:00;;;;;;;;;;;;;;;-0.02;60.25;94376.78;5013395;28;20080;-74
2021/12/09 09:00:28;;;;;;;;;;;;;;;-0.01;54.62;94373.19;5018379;28;20100;-74
2021/12/09 09:02:53;;;;;;;;;;;;;;;-0.24;55.88;94373.53;5006217;28;20212;-75
2021/12/09 09:05:18;;;;;;;;;;;;;;;0.21;52.96;94373.81;5012894;28;19989;-74
2021/12/09 09:07:44;;;;;;;;;;;;;;;0.47;54.25;94371.34;5009102;28;20004;-75
2021/12/09 09:10:10;;;;;;;;;;;;;;;-0.91;60.67;94378.69;5017807;28;19979;-75
2021/12/09 09:12:36;;;;;;;;;;;;;;;0.27;60.16;94370.63;5020772;28;20020;-72
2021/12/09 09:15:02;;;;;;;;;;;;;;;0.94;53.82;94376.59;5020840;28;19993;-72
2021/12/09 09:17:27;;;;;;;;;;;;;;;-1.34;56.44;94384.09;5012855;28;20443;-67
2021/12/09 09:19:53;;;;;;;;;;;;;;;0.15;53.62;94379.63;5001480;28;20478;-66
2021/12/09 09:22:18;;;;;;;;;;;;;;;-0.86;55.00;94387.78;5008805;28;19985;-66
2021/12/09 09:24:43;;;;;;;;;;;;;;;-0.77;56.20;94378.28;5016769;28;19997;-67
2021/12/09 09:27:08;;;;;;;;;;;;;;;-1.02;57.08;94382.25;5015751;28;20329;-67
2021/12/09 09:29:34;;;;;;;;;;;;;;;-0.13;54.57;94374.34;5003350;28;19981;-66
2021/12/09 09:32:00;;;;;;;;;;;;;;;-0.79;55.82;94374.97;5016241;28;20473;-66
2021/12/09 09:34:25;;;;;;;;;;;;;;;-0.65;55.67;94383.38;5016819;28;19981;-68
2021/12/09 09:36:50;;;;;;;;;;;;;;;-0.77;56.10;94378.28;5010473;28;20435;-69
2021/12/09 09:39:21;;;;;;;;;;;;;;;-2.21;60.03;94379.25;5015856;28;20087;-68
2021/12/09 09:41:54;;;;;;;;;;;;;;;-1.83;62.10;94379.56;5019862;28;20019;-66
2021/12/09 09:44:23;;;;;;;;;;;;;;;-0.66;56.91;94368.63;5009865;28;20389;-66
2021/12/09 09:46:48;;;;;;;;;;;;;;;-1.04;57.82;94377.16;5004079;28;19990;-68
2021/12/09 09:49:13;;;;;;;;;;;;;;;-0.86;57.38;94376.47;5008447;28;19970;-68
2021/12/09 09:51:39;;;;;;;;;;;;;;;-0.12;54.93;94370.75;5010516;28;20506;-68
2021/12/09 09:54:04;;;;;;;;;;;;;;;-0.61;57.92;94376.91;5009144;28;19973;-69
2021/12/09 09:56:30;;;;;;;;;;;;;;;-0.66;59.98;94373.88;5003130;28;19996;-68
2021/12/09 09:58:57;;;;;;;;;;;;;;;0.08;57.44;94371.53;5002583;28;20024;-67
2021/12/09 10:01:22;;;;;;;;;;;;;;;-1.09;56.82;94380.16;5010456;28;20056;-68
2021/12/09 10:03:48;;;;;;;;;;;;;;;-0.14;56.18;94372.69;5016225;28;20263;-67
2021/12/09 10:06:14;;;;;;;;;;;;;;;0.06;53.60;94365.59;5016290;28;19973;-67
2021/12/09 10:08:40;;;;;;;;;;;;;;;-0.35;53.45;94365.84;5001229;28;20104;-70
2021/12/09 10:11:05;;;;;;;;;;;;;;;0.28;55.03;94366.22;5009605;28;20558;-67
2021/12/09 10:13:34;;;;;;;;;;;;;;;0.55;54.90;94362.75;5018080;28;19982;-69
2021/12/09 10:16:00;;;;;;;;;;;;;;;-0.12;56.26;94365.50;5014316;28;20059;-68
2021/12/09 10:18:31;;;;;;;;;;;;;;;-0.36;52.89;94361.59;5014736;28;20590;-69
2021/12/09 10:20:57;;;;;;;;;;;;;;;0.46;54.34;94354.00;5016461;28;19970;-68
2021/12/09 10:23:32;;;;;;;;;;;;;;;1.03;50.51;94357.38;5013322;28;20012;-67
2021/12/09 10:26:27;;;;;;;;;;;;;;;1.37;51.92;94346.16;5007192;28;20506;-68
2021/12/09 10:28:54;;;;;;;;;;;;;;;1.13;56.62;94344.19;5007988;28;20526;-68
2021/12/09 10:31:27;;;;;;;;;;;;;;;1.43;49.10;94344.75;5013743;28;20688;-68
2021/12/09 10:33:59;;;;;;;;;;;;;;;1.99;47.18;94338.41;5004306;28;20523;-68
2021/12/09 10:36:37;;;;;;;;;;;;;;;2.05;50.17;94342.22;5013854;28;20453;-67
2021/12/09 10:39:18;;;;;;;;;;;;;;;0.26;51.08;94344.56;5013397;28;20579;-68
2021/12/09 10:41:43;;;;;;;;;;;;;;;0.71;52.85;94345.56;5005932;28;20082;-68
2021/12/09 10:44:08;;;;;;;;;;;;;;;1.30;55.71;94336.44;5017197;28;20106;-68
2021/12/09 10:49:39;;;;;;;;;;;;;;;1.04;49.26;94334.59;5018611;28;19977;-67
2021/12/09 10:52:23;;;;;;;;;;;;;;;1.18;50.05;94335.84;5016135;28;20077;-68
2021/12/09 10:54:49;;;;;;;;;;;;;;;1.22;49.04;94326.72;5017642;28;19989;-68
2021/12/09 10:57:31;;;;;;;;;;;;;;;0.47;52.00;94326.84;5020933;28;20323;-68
2021/12/09 10:59:57;;;;;;;;;;;;;;;1.98;47.22;94326.28;5010658;28;20016;-69
2021/12/09 11:02:22;;;;;;;;;;;;;;;1.94;48.74;94325.75;5013784;28;20459;-69
2021/12/09 11:05:00;;;;;;;;;;;;;;;2.20;47.66;94330.16;5008975;28;20096;-68
2021/12/09 11:07:31;;;;;;;;;;;;;;;2.36;46.59;94325.94;5009413;28;20004;-69
2021/12/09 11:10:15;;;;;;;;;;;;;;;1.07;49.58;94339.53;5022880;28;20084;-65
2021/12/09 11:12:47;;;;;;;;;;;;;;;1.08;53.84;94338.56;5018780;28;20223;-68
2021/12/09 11:15:13;;;;;;;;;;;;;;;1.92;54.22;94332.97;5016739;28;19993;-68
2021/12/09 11:17:42;;;;;;;;;;;;;;;2.47;46.27;94332.72;5010078;28;20015;-67
2021/12/09 11:20:07;;;;;;;;;;;;;;;1.42;48.01;94326.53;5009501;28;20255;-66
2021/12/09 11:22:36;;;;;;;;;;;;;;;1.45;48.46;94327.06;5006539;28;20609;-68
2021/12/09 11:25:04;;;;;;;;;;;;;;;1.48;48.46;94320.69;5015059;28;20005;-67
2021/12/09 11:27:30;;;;;;;;;;;;;;;-0.99;56.15;94321.84;5009287;28;20016;-67
2021/12/09 11:30:06;;;;;;;;;;;;;;;-0.26;53.09;94328.38;5003596;28;19974;-66
2021/12/09 11:32:46;;;;;;;;;;;;;;;-0.33;53.75;94324.69;5017379;28;19992;-68
2021/12/09 11:35:16;;;;;;;;;;;;;;;0.66;54.56;94325.06;5015968;28;19989;-67
2021/12/09 11:41:02;;;;;;;;;;;;;;;0.83;56.53;94326.06;5009751;28;20512;-67
2021/12/09 11:43:21;;;;;;;;;;;;;;;1.23;51.79;94326.56;5015972;28;19997;-67
2021/12/09 11:45:47;;;;;;;;;;;;;;;1.28;51.40;94330.53;5019064;28;20397;-66
2021/12/09 11:48:13;;;;;;;;;;;;;;;0.64;51.11;94329.63;5020143;28;19994;-66
2021/12/09 11:50:40;;;;;;;;;;;;;;;0.48;51.95;94332.88;5011211;28;19970;-66
2021/12/09 11:53:10;;;;;;;;;;;;;;;0.90;50.71;94333.31;5015021;28;19989;-67
2021/12/09 11:55:50;;;;;;;;;;;;;;;-0.56;55.04;94325.00;5016266;28;20073;-67
2021/12/09 11:58:26;;;;;;;;;;;;;;;0.89;51.97;94318.56;5013667;28;20031;-65
2021/12/09 12:11:57;;;;;;;;;;;;;;;0.60;51.60;94328.28;4990962;28;20081;-66
2021/12/09 12:14:41;;;;;;;;;;;;;;;0.04;52.69;94326.47;4996373;28;20405;-66
2021/12/09 12:17:15;;;;;;;;;;;;;;;-1.11;56.64;94331.63;5010607;28;19989;-68
2021/12/09 12:20:05;;;;;;;;;;;;;;;-0.71;55.69;94325.44;5011481;28;19994;-67
2021/12/09 12:25:34;;;;;;;;;;;;;;;-0.45;55.26;94327.47;5009357;28;20104;-65
2021/12/09 12:31:36;;;;;;;;;;;;;;;-0.78;55.42;94341.81;5012401;28;19997;-66
2021/12/09 12:37:14;;;;;;;;;;;;;;;-0.60;54.87;94326.25;5016940;28;20000;-65
2021/12/09 12:42:16;;;;;;;;;;;;;;;-0.11;53.47;94320.91;5016447;28;19972;-67
2021/12/09 12:45:02;;;;;;;;;;;;;;;-0.12;52.75;94307.97;5014346;28;20439;-69
2021/12/09 12:47:28;;;;;;;;;;;;;;;0.23;52.75;94313.44;5023235;28;19993;-66
2021/12/09 12:50:10;;;;;;;;;;;;;;;0.38;51.95;94309.38;5018332;28;20004;-67
2021/12/09 12:52:37;;;;;;;;;;;;;;;0.28;51.79;94314.66;5007797;28;20105;-67
2021/12/09 12:55:12;;;;;;;;;;;;;;;-0.36;56.10;94317.13;5016221;28;20713;-66
2021/12/09 12:57:46;;;;;;;;;;;;;;;0.07;52.80;94313.09;5018251;28;19973;-66
2021/12/09 13:00:28;;;;;;;;;;;;;;;-0.71;54.17;94309.75;5014637;28;20024;-67
2021/12/09 13:14:07;;;;;;;;;;;;;;;-1.89;57.18;94312.25;5015496;28;20012;-74
2021/12/09 13:21:31;;;;;;;;;;;;;;;-0.54;53.47;94301.34;5025075;28;19977;-74
2021/12/09 13:24:15;;;;;;;;;;;;;;;-0.29;60.02;94301.69;5024106;28;20051;-74
2021/12/09 13:26:59;;;;;;;;;;;;;;;-0.23;53.59;94299.31;5022676;28;20091;-74
2021/12/09 13:29:33;;;;;;;;;;;;;;;0.05;52.68;94298.53;5025146;28;19961;-74
2021/12/09 13:32:15;;;;;;;;;;;;;;;0.01;52.75;94300.63;5024555;28;19989;-74
2021/12/09 13:34:51;;;;;;;;;;;;;;;-0.41;52.80;94309.69;5024171;28;20017;-74
2021/12/09 13:48:08;;;;;;;;;;;;;;;0.29;51.50;94310.25;5024167;28;20410;-74
2021/12/09 13:55:33;;;;;;;;;;;;;;;-0.40;52.09;94300.06;5023815;28;20426;-74
2021/12/09 13:57:59;;;;;;;;;;;;;;;-0.49;53.19;94309.56;5022798;28;20024;-74
2021/12/09 14:00:24;;;;;;;;;;;;;;;-0.29;52.44;94302.50;5014243;28;20455;-71